createdAt,value
2018-08-20T00:01:44.879Z,7.20
2018-08-20T00:04:14.337Z,7.77
2018-08-20T00:06:52.185Z,8.30
2018-08-20T00:09:24.758Z,7.40
2018-08-20T00:11:53.969Z,8.50
2018-08-20T00:14:23.162Z,7.57
2018-08-20T00:16:52.336Z,8.10
2018-08-20T00:19:21.373Z,8.20
2018-08-20T00:21:50.425Z,8.20
2018-08-20T00:24:19.496Z,8.00
2018-08-20T00:26:48.648Z,8.00
2018-08-20T00:29:17.790Z,8.53
2018-08-20T00:31:46.963Z,8.23
2018-08-20T00:34:16.869Z,8.27
2018-08-20T00:36:46.987Z,7.77
2018-08-20T00:39:16.118Z,8.20
2018-08-20T00:41:45.898Z,8.73
2018-08-20T00:44:17.279Z,7.80
2018-08-20T00:46:46.832Z,7.13
2018-08-20T00:49:16.794Z,7.90
2018-08-20T00:51:46.264Z,8.40
2018-08-20T00:54:15.565Z,8.40
2018-08-20T00:56:44.631Z,7.67
2018-08-20T00:59:13.864Z,8.07
2018-08-20T01:01:43.000Z,8.33
2018-08-20T01:04:12.232Z,8.13
2018-08-20T01:06:41.324Z,7.93
2018-08-20T01:09:10.450Z,8.30
2018-08-20T01:11:39.519Z,8.70
2018-08-20T01:14:08.634Z,8.80
2018-08-20T01:16:37.892Z,8.20
2018-08-20T01:19:06.988Z,9.03
2018-08-20T01:21:36.196Z,8.20
2018-08-20T01:24:05.312Z,8.97
2018-08-20T01:26:34.480Z,8.90
2018-08-20T01:29:03.667Z,9.50
2018-08-20T01:31:32.733Z,9.10
2018-08-20T01:34:01.930Z,8.40
2018-08-20T01:36:31.004Z,9.47
2018-08-20T01:39:00.167Z,9.73
2018-08-20T01:41:29.268Z,9.00
2018-08-20T01:43:58.352Z,8.30
2018-08-20T01:46:27.459Z,8.43
2018-08-20T01:48:56.541Z,8.10
2018-08-20T01:51:25.640Z,8.60
2018-08-20T01:53:54.702Z,7.63
2018-08-20T01:56:23.827Z,8.97
2018-08-20T01:58:52.900Z,9.03
2018-08-20T02:01:21.960Z,9.60
2018-08-20T02:03:51.147Z,8.80
2018-08-20T02:06:21.168Z,8.20
2018-08-20T02:08:50.296Z,9.30
2018-08-20T02:11:19.376Z,9.00
2018-08-20T02:13:48.497Z,10.10
2018-08-20T02:16:17.592Z,8.20
2018-08-20T02:18:46.700Z,9.27
2018-08-20T02:21:15.774Z,9.00
2018-08-20T02:23:44.836Z,9.00
2018-08-20T02:26:13.904Z,9.50
2018-08-20T02:28:42.963Z,9.00
2018-08-20T02:31:12.092Z,9.37
2018-08-20T02:33:41.211Z,8.80
2018-08-20T02:36:10.407Z,9.10
2018-08-20T02:38:39.454Z,10.17
2018-08-20T02:41:08.723Z,9.47
2018-08-20T02:43:37.783Z,9.37
2018-08-20T02:46:06.904Z,9.10
2018-08-20T02:48:36.032Z,9.23
2018-08-20T02:51:05.144Z,8.80
2018-08-20T02:53:34.449Z,9.83
2018-08-20T02:56:03.569Z,8.27
2018-08-20T02:58:32.680Z,8.80
2018-08-20T03:01:01.997Z,9.50
2018-08-20T03:03:31.068Z,10.10
2018-08-20T03:06:00.180Z,9.77
2018-08-20T03:08:29.231Z,9.53
2018-08-20T03:10:58.316Z,9.70
2018-08-20T03:13:27.403Z,9.50
2018-08-20T03:15:56.495Z,9.90
2018-08-20T03:18:25.731Z,9.20
2018-08-20T03:20:54.793Z,9.23
2018-08-20T03:23:23.891Z,9.17
2018-08-20T03:25:52.972Z,8.00
2018-08-20T03:28:22.088Z,10.57
2018-08-20T03:30:51.257Z,9.23
2018-08-20T03:33:20.325Z,9.30
2018-08-20T03:35:49.467Z,11.03
2018-08-20T03:38:18.544Z,9.03
2018-08-20T03:40:47.632Z,10.70
2018-08-20T03:43:16.848Z,8.83
2018-08-20T03:45:45.934Z,11.00
2018-08-20T03:48:15.136Z,9.43
2018-08-20T03:50:44.268Z,9.10
2018-08-20T03:53:13.724Z,10.57
2018-08-20T03:55:42.786Z,9.33
2018-08-20T03:58:11.917Z,10.47
2018-08-20T04:00:40.996Z,11.47
2018-08-20T04:03:10.124Z,10.70
2018-08-20T04:05:39.242Z,10.27
2018-08-20T04:08:08.331Z,10.60
2018-08-20T04:10:37.560Z,9.77
2018-08-20T04:13:06.692Z,10.50
2018-08-20T04:15:35.876Z,10.40
2018-08-20T04:18:04.980Z,10.53
2018-08-20T04:20:34.057Z,9.83
2018-08-20T04:23:03.112Z,10.40
2018-08-20T04:25:32.267Z,10.40
2018-08-20T04:28:01.441Z,11.30
2018-08-20T04:30:30.550Z,11.27
2018-08-20T04:32:59.611Z,10.73
2018-08-20T04:35:28.717Z,9.23
2018-08-20T04:37:57.824Z,9.87
2018-08-20T04:40:26.948Z,10.97
2018-08-20T04:42:56.021Z,10.00
2018-08-20T04:45:25.123Z,11.50
2018-08-20T04:47:54.188Z,11.37
2018-08-20T04:50:23.621Z,10.53
2018-08-20T04:52:52.595Z,11.50
2018-08-20T04:55:21.659Z,10.57
2018-08-20T04:57:50.808Z,12.33
2018-08-20T05:00:20.440Z,11.07
2018-08-20T05:02:49.514Z,11.57
2018-08-20T05:05:18.666Z,11.67
2018-08-20T05:07:47.704Z,11.47
2018-08-20T05:10:16.780Z,12.00
2018-08-20T05:12:45.850Z,9.70
2018-08-20T05:15:14.920Z,11.00
2018-08-20T05:17:44.006Z,11.20
2018-08-20T05:20:13.126Z,11.97
2018-08-20T05:22:42.273Z,11.73
2018-08-20T05:25:11.341Z,10.40
2018-08-20T05:27:40.391Z,11.53
2018-08-20T05:30:09.740Z,11.17
2018-08-20T05:32:38.831Z,10.97
2018-08-20T05:35:07.980Z,12.10
2018-08-20T05:37:37.136Z,10.90
2018-08-20T05:40:06.438Z,12.20
2018-08-20T05:42:35.516Z,11.10
2018-08-20T05:45:06.052Z,10.77
2018-08-20T05:47:35.186Z,9.83
2018-08-20T05:50:04.663Z,10.57
2018-08-20T05:52:33.742Z,11.20
2018-08-20T05:55:02.860Z,10.80
2018-08-20T05:57:32.015Z,11.33
2018-08-20T06:00:01.115Z,11.20
2018-08-20T06:02:30.250Z,11.40
2018-08-20T06:04:59.433Z,10.70
2018-08-20T06:07:28.526Z,12.00
2018-08-20T06:09:57.618Z,10.60
2018-08-20T06:12:26.744Z,11.20
2018-08-20T06:14:55.821Z,12.17
2018-08-20T06:17:24.949Z,12.67
2018-08-20T06:19:54.109Z,10.80
2018-08-20T06:22:23.238Z,11.40
2018-08-20T06:24:52.419Z,11.80
2018-08-20T06:27:21.526Z,11.77
2018-08-20T06:29:50.644Z,13.13
2018-08-20T06:32:19.827Z,12.63
2018-08-20T06:34:48.963Z,11.53
2018-08-20T06:37:18.056Z,11.70
2018-08-20T06:39:47.123Z,12.33
2018-08-20T06:42:16.275Z,11.00
2018-08-20T06:44:45.301Z,10.60
2018-08-20T06:47:14.462Z,12.00
2018-08-20T06:49:43.531Z,11.20
2018-08-20T06:52:12.653Z,11.87
2018-08-20T06:54:41.737Z,11.37
2018-08-20T06:57:10.819Z,11.60
2018-08-20T06:59:39.901Z,10.90
2018-08-20T07:02:09.242Z,12.50
2018-08-20T07:04:38.303Z,10.70
2018-08-20T07:07:07.447Z,11.83
2018-08-20T07:09:36.540Z,11.07
2018-08-20T07:12:05.806Z,11.43
2018-08-20T07:14:34.914Z,11.87
2018-08-20T07:17:04.144Z,11.63
2018-08-20T07:19:33.561Z,10.30
2018-08-20T07:22:02.819Z,10.20
2018-08-20T07:24:31.941Z,11.80
2018-08-20T07:27:01.112Z,11.87
2018-08-20T07:29:48.183Z,11.00
2018-08-20T07:32:17.480Z,11.10
2018-08-20T07:34:47.053Z,12.60
2018-08-20T07:37:17.256Z,10.40
2018-08-20T07:39:47.592Z,11.80
2018-08-20T07:42:17.654Z,10.87
2018-08-20T07:44:46.716Z,10.97
2018-08-20T07:47:15.829Z,11.57
2018-08-20T07:49:44.960Z,11.53
2018-08-20T07:52:14.087Z,12.40
2018-08-20T07:54:43.217Z,10.80
2018-08-20T07:57:12.420Z,14.67
2018-08-20T07:59:41.513Z,13.63
2018-08-20T08:02:10.642Z,14.40
2018-08-20T08:04:39.752Z,14.20
2018-08-20T08:07:08.877Z,14.97
2018-08-20T08:09:38.243Z,14.30
2018-08-20T08:12:07.733Z,13.90
2018-08-20T08:14:36.904Z,11.50
2018-08-20T08:17:06.231Z,11.43
2018-08-20T08:19:35.455Z,13.23
2018-08-20T08:22:04.567Z,12.03
2018-08-20T08:24:33.765Z,12.23
2018-08-20T08:27:02.888Z,11.50
2018-08-20T08:29:31.988Z,12.10
2018-08-20T08:32:01.149Z,11.77
2018-08-20T08:34:30.349Z,11.67
2018-08-20T08:36:59.555Z,10.70
2018-08-20T08:39:28.766Z,12.73
2018-08-20T08:41:57.878Z,12.90
2018-08-20T08:44:27.165Z,12.27
2018-08-20T08:46:57.040Z,10.67
2018-08-20T08:49:26.243Z,10.03
2018-08-20T08:51:55.440Z,10.47
2018-08-20T08:54:24.613Z,11.27
2018-08-20T08:56:54.048Z,10.30
2018-08-20T08:59:23.315Z,9.90
2018-08-20T09:01:52.556Z,10.73
2018-08-20T09:04:22.122Z,8.83
2018-08-20T09:06:51.337Z,9.00
2018-08-20T09:09:21.461Z,9.73
2018-08-20T09:11:50.940Z,8.00
2018-08-20T09:14:20.148Z,8.17
2018-08-20T09:16:49.338Z,9.77
2018-08-20T09:19:18.745Z,10.20
2018-08-20T09:21:47.845Z,9.97
2018-08-20T09:24:16.982Z,8.80
2018-08-20T09:26:46.177Z,7.07
2018-08-20T09:29:15.262Z,7.10
2018-08-20T09:31:44.772Z,8.60
2018-08-20T09:34:14.250Z,7.83
2018-08-20T09:36:43.491Z,8.47
2018-08-20T09:39:12.671Z,6.63
2018-08-20T09:41:41.793Z,6.67
2018-08-20T09:44:10.941Z,6.40
2018-08-20T09:46:40.098Z,7.03
2018-08-20T09:49:09.314Z,7.13
2018-08-20T09:51:38.578Z,7.03
2018-08-20T09:54:07.823Z,7.00
2018-08-20T09:56:37.131Z,7.47
2018-08-20T09:59:06.455Z,6.63
2018-08-20T10:01:35.627Z,7.67
2018-08-20T10:04:04.870Z,6.60
2018-08-20T10:06:34.112Z,6.40
2018-08-20T10:09:03.830Z,6.63
2018-08-20T10:11:33.131Z,5.37
2018-08-20T10:14:02.564Z,5.90
2018-08-20T10:16:32.350Z,5.60
2018-08-20T10:19:01.861Z,5.17
2018-08-20T10:21:31.215Z,6.23
2018-08-20T10:24:00.662Z,5.73
2018-08-20T10:26:29.908Z,5.93
2018-08-20T10:28:59.010Z,5.33
2018-08-20T10:31:28.191Z,6.17
2018-08-20T10:33:57.491Z,4.60
2018-08-20T10:36:27.171Z,5.57
2018-08-20T10:38:56.640Z,5.80
2018-08-20T10:41:26.215Z,5.60
2018-08-20T10:43:55.501Z,5.37
2018-08-20T10:46:27.764Z,7.13
2018-08-20T10:48:58.131Z,5.87
2018-08-20T10:51:27.720Z,6.53
2018-08-20T10:53:56.976Z,6.57
2018-08-20T10:56:26.385Z,7.17
2018-08-20T10:58:55.704Z,5.77
2018-08-20T11:01:25.145Z,6.50
2018-08-20T11:03:58.971Z,6.90
2018-08-20T11:06:29.176Z,6.40
2018-08-20T11:09:00.066Z,6.10
2018-08-20T11:11:29.615Z,6.90
2018-08-20T11:13:59.898Z,6.50
2018-08-20T11:16:29.168Z,7.30
2018-08-20T11:18:58.508Z,5.63
2018-08-20T11:21:27.649Z,6.00
2018-08-20T11:23:57.249Z,6.90
2018-08-20T11:26:26.514Z,6.70
2018-08-20T11:28:55.748Z,7.20
2018-08-20T11:31:24.892Z,7.03
2018-08-20T11:33:54.376Z,6.33
2018-08-20T11:36:23.533Z,6.63
2018-08-20T11:38:52.668Z,6.07
2018-08-20T11:41:21.768Z,5.87
2018-08-20T11:43:50.963Z,5.70
2018-08-20T11:46:20.105Z,5.70
2018-08-20T11:48:49.276Z,5.60
2018-08-20T11:51:18.371Z,6.77
2018-08-20T11:53:47.475Z,5.30
2018-08-20T11:56:16.581Z,5.83
2018-08-20T11:58:45.704Z,6.00
2018-08-20T12:01:14.861Z,5.70
2018-08-20T12:03:46.969Z,4.97
2018-08-20T12:06:16.305Z,3.87
2018-08-20T12:08:45.495Z,5.17
2018-08-20T12:11:14.710Z,3.40
2018-08-20T12:13:43.843Z,4.40
2018-08-20T12:16:12.988Z,4.07
2018-08-20T12:18:42.080Z,4.30
2018-08-20T12:21:11.948Z,4.07
2018-08-20T12:23:41.259Z,3.70
2018-08-20T12:26:10.747Z,3.93
2018-08-20T12:28:40.942Z,4.53
2018-08-20T12:31:10.120Z,4.07
2018-08-20T12:33:39.232Z,4.80
2018-08-20T12:36:08.509Z,5.10
2018-08-20T12:38:37.619Z,5.20
2018-08-20T12:41:06.803Z,4.90
2018-08-20T12:43:35.976Z,4.70
2018-08-20T12:46:05.505Z,5.33
2018-08-20T12:48:34.711Z,4.83
2018-08-20T12:51:04.633Z,5.27
2018-08-20T12:53:33.816Z,5.50
2018-08-20T12:56:03.078Z,5.50
2018-08-20T12:58:32.258Z,6.20
2018-08-20T13:01:02.527Z,5.50
2018-08-20T13:03:31.736Z,5.73
2018-08-20T13:06:01.121Z,5.13
2018-08-20T13:08:30.282Z,5.37
2018-08-20T13:10:59.436Z,5.77
2018-08-20T13:13:28.655Z,5.10
2018-08-20T13:15:58.969Z,5.97
2018-08-20T13:18:28.052Z,6.10
2018-08-20T13:20:57.244Z,5.20
2018-08-20T13:23:26.450Z,5.67
2018-08-20T13:25:55.536Z,4.93
2018-08-20T13:28:24.669Z,5.43
2018-08-20T13:30:53.866Z,5.80
2018-08-20T13:33:23.140Z,4.90
2018-08-20T13:35:52.457Z,5.30
2018-08-20T13:38:21.605Z,4.70
2018-08-20T13:40:50.833Z,5.13
2018-08-20T13:43:19.909Z,4.80
2018-08-20T13:45:49.145Z,5.53
2018-08-20T13:48:18.325Z,6.27
2018-08-20T13:50:47.469Z,5.60
2018-08-20T13:53:16.612Z,4.10
2018-08-20T13:55:46.168Z,5.33
2018-08-20T13:58:15.234Z,5.00
2018-08-20T14:00:44.524Z,5.90
2018-08-20T14:03:13.864Z,6.20
2018-08-20T14:05:42.953Z,5.50
2018-08-20T14:08:12.612Z,5.80
2018-08-20T14:10:41.813Z,6.90
2018-08-20T14:13:10.923Z,6.30
2018-08-20T14:15:40.977Z,5.90
2018-08-20T14:18:10.581Z,6.90
2018-08-20T14:21:17.648Z,5.97
2018-08-20T14:23:47.856Z,6.90
2018-08-20T14:26:17.057Z,5.90
2018-08-20T14:28:46.170Z,6.77
2018-08-20T14:31:15.268Z,6.17
2018-08-20T14:33:44.424Z,6.20
2018-08-20T14:36:13.629Z,5.30
2018-08-20T14:38:42.733Z,5.03
2018-08-20T14:41:11.820Z,4.90
2018-08-20T14:43:40.915Z,4.40
2018-08-20T14:46:15.700Z,3.90
2018-08-20T14:48:44.821Z,2.60
2018-08-20T14:51:13.969Z,2.90
2018-08-20T14:53:43.366Z,2.73
2018-08-20T14:56:12.561Z,2.87
2018-08-20T14:58:41.670Z,2.60
2018-08-20T15:01:10.792Z,2.70
2018-08-20T15:03:39.944Z,2.73
2018-08-20T15:06:09.788Z,2.70
2018-08-20T15:08:40.084Z,2.70
2018-08-20T15:11:09.323Z,2.60
2018-08-20T15:13:38.432Z,2.60
2018-08-20T15:16:07.913Z,2.40
2018-08-20T15:18:36.900Z,2.60
2018-08-20T15:21:06.020Z,3.07
2018-08-20T15:23:35.163Z,3.00
2018-08-20T15:26:04.832Z,2.40
2018-08-20T15:28:34.791Z,2.73
2018-08-20T15:31:03.918Z,2.77
2018-08-20T15:33:33.377Z,3.20
2018-08-20T15:36:03.828Z,2.47
2018-08-20T15:38:33.016Z,2.60
2018-08-20T15:41:02.444Z,2.60
2018-08-20T15:43:31.519Z,2.30
2018-08-20T15:46:00.611Z,2.43
2018-08-20T15:48:29.919Z,2.40
2018-08-20T15:50:59.333Z,2.97
2018-08-20T15:53:28.578Z,2.00
2018-08-20T15:55:57.982Z,2.17
2018-08-20T15:58:27.294Z,3.00
2018-08-20T16:00:57.549Z,3.40
2018-08-20T16:03:26.710Z,2.87
2018-08-20T16:05:55.879Z,2.77
2018-08-20T16:08:25.201Z,3.43
2018-08-20T16:10:54.327Z,2.20
2018-08-20T16:13:23.493Z,2.63
2018-08-20T16:15:52.589Z,3.00
2018-08-20T16:18:21.828Z,3.30
2018-08-20T16:20:51.025Z,3.07
2018-08-20T16:23:20.317Z,2.70
2018-08-20T16:25:49.464Z,3.77
2018-08-20T16:28:18.700Z,2.40
2018-08-20T16:30:47.925Z,2.90
2018-08-20T16:33:17.119Z,3.10
2018-08-20T16:35:46.553Z,3.37
2018-08-20T16:38:16.575Z,2.70
2018-08-20T16:40:46.353Z,3.30
2018-08-20T16:43:16.101Z,2.80
2018-08-20T16:45:45.628Z,3.17
2018-08-20T16:48:14.721Z,3.17
2018-08-20T16:50:43.901Z,2.80
2018-08-20T16:53:13.016Z,2.40
2018-08-20T16:55:42.268Z,2.80
2018-08-20T16:58:11.372Z,2.67
2018-08-20T17:00:40.537Z,2.93
2018-08-20T17:03:11.236Z,2.50
2018-08-20T17:05:45.772Z,2.47
2018-08-20T17:08:20.099Z,2.30
2018-08-20T17:10:58.488Z,2.00
2018-08-20T17:13:27.627Z,2.20
2018-08-20T17:15:56.754Z,2.37
2018-08-20T17:18:25.990Z,2.30
2018-08-20T17:20:55.318Z,1.80
2018-08-20T17:23:25.138Z,2.47
2018-08-20T17:25:55.533Z,2.60
2018-08-20T17:28:26.057Z,1.90
2018-08-20T17:30:57.815Z,2.30
2018-08-20T17:33:30.914Z,2.20
2018-08-20T17:36:00.316Z,2.50
2018-08-20T17:38:29.601Z,2.40
2018-08-20T17:40:58.705Z,2.87
2018-08-20T17:43:27.859Z,2.33
2018-08-20T17:45:58.431Z,2.60
2018-08-20T17:48:30.164Z,2.60
2018-08-20T17:50:59.971Z,3.10
2018-08-20T17:54:02.274Z,2.60
2018-08-20T17:56:31.647Z,2.50
2018-08-20T17:59:06.117Z,3.13
2018-08-20T18:01:36.053Z,2.57
2018-08-20T18:04:05.544Z,2.73
2018-08-20T18:06:48.584Z,2.87
2018-08-20T18:09:17.757Z,2.47
2018-08-20T18:11:51.996Z,2.40
2018-08-20T18:14:22.277Z,2.70
2018-08-20T18:16:51.485Z,2.67
2018-08-20T18:19:20.666Z,3.20
2018-08-20T18:21:50.064Z,2.50
2018-08-20T18:24:20.344Z,3.00
2018-08-20T18:26:53.669Z,3.00
2018-08-20T18:29:23.532Z,3.33
2018-08-20T18:31:59.953Z,2.97
2018-08-20T18:34:29.192Z,3.30
2018-08-20T18:37:02.454Z,3.10
2018-08-20T18:39:31.692Z,3.23
2018-08-20T18:42:03.787Z,2.63
2018-08-20T18:44:32.985Z,3.33
2018-08-20T18:47:02.350Z,3.10
2018-08-20T18:49:31.809Z,3.20
2018-08-20T18:52:07.289Z,3.43
2018-08-20T18:54:39.717Z,3.50
2018-08-20T18:57:09.244Z,3.40
2018-08-20T18:59:39.261Z,3.37
2018-08-20T19:02:12.116Z,4.00
2018-08-20T19:04:46.768Z,4.33
2018-08-20T19:07:16.838Z,4.30
2018-08-20T19:09:48.482Z,4.03
2018-08-20T19:12:18.151Z,3.90
2018-08-20T19:14:47.358Z,4.53
2018-08-20T19:17:26.813Z,3.83
2018-08-20T19:20:00.547Z,4.60
2018-08-20T19:22:30.741Z,4.13
2018-08-20T19:24:59.977Z,4.27
2018-08-20T19:27:31.743Z,5.13
2018-08-20T19:30:10.097Z,3.80
2018-08-20T19:32:39.551Z,4.70
2018-08-20T19:35:08.753Z,4.60
2018-08-20T19:37:38.438Z,4.67
2018-08-20T19:40:08.245Z,4.53
2018-08-20T19:42:37.511Z,4.17
2018-08-20T19:45:08.678Z,4.40
2018-08-20T19:47:38.111Z,4.90
2018-08-20T19:50:09.122Z,5.10
2018-08-20T19:52:39.086Z,4.97
2018-08-20T19:55:10.824Z,5.13
2018-08-20T19:57:40.893Z,5.10
2018-08-20T20:00:12.052Z,4.60
2018-08-20T20:02:42.669Z,5.43
2018-08-20T20:05:13.772Z,7.07
2018-08-20T20:07:53.622Z,6.60
2018-08-20T20:10:22.785Z,7.00
2018-08-20T20:12:52.822Z,7.00
2018-08-20T20:15:22.657Z,7.37
2018-08-20T20:17:52.420Z,8.20
2018-08-20T20:20:21.648Z,8.30
2018-08-20T20:22:50.760Z,8.93
2018-08-20T20:25:20.112Z,10.73
2018-08-20T20:27:49.541Z,9.53
2018-08-20T20:30:18.651Z,7.60
2018-08-20T20:32:49.372Z,7.77
2018-08-20T20:35:18.528Z,8.10
2018-08-20T20:37:47.664Z,9.70
2018-08-20T20:40:17.250Z,10.00
2018-08-20T20:42:46.402Z,10.10
2018-08-20T20:45:16.001Z,9.07
2018-08-20T20:47:45.200Z,7.53
2018-08-20T20:50:14.444Z,8.43
2018-08-20T20:52:43.662Z,9.20
2018-08-20T20:55:12.766Z,8.80
2018-08-20T20:57:41.951Z,8.20
2018-08-20T21:00:11.091Z,9.37
2018-08-20T21:02:40.390Z,8.10
2018-08-20T21:05:11.066Z,9.80
2018-08-20T21:07:40.264Z,9.40
2018-08-20T21:10:10.679Z,8.43
2018-08-20T21:12:39.824Z,9.43
2018-08-20T21:15:09.702Z,9.60
2018-08-20T21:17:38.904Z,8.80
2018-08-20T21:20:09.731Z,8.40
2018-08-20T21:22:39.264Z,10.20
2018-08-20T21:25:09.535Z,9.60
2018-08-20T21:27:38.997Z,9.10
2018-08-20T21:30:08.140Z,8.70
2018-08-20T21:32:38.669Z,9.50
2018-08-20T21:35:07.863Z,10.30
2018-08-20T21:37:37.696Z,10.30
2018-08-20T21:40:06.873Z,11.83
2018-08-20T21:42:41.636Z,10.40
2018-08-20T21:45:11.056Z,12.00
2018-08-20T21:47:40.308Z,11.27
2018-08-20T21:50:09.470Z,11.57
2018-08-20T21:52:38.906Z,12.27
2018-08-20T21:55:08.482Z,12.50
2018-08-20T21:57:41.190Z,13.57
2018-08-20T22:00:14.164Z,12.90
2018-08-20T22:02:47.866Z,11.70
2018-08-20T22:05:17.000Z,12.80
2018-08-20T22:07:47.772Z,12.50
2018-08-20T22:10:16.925Z,12.57
2018-08-20T22:12:46.447Z,13.03
2018-08-20T22:15:15.562Z,13.00
2018-08-20T22:17:44.699Z,13.10
2018-08-20T22:20:13.811Z,12.73
2018-08-20T22:22:43.063Z,12.40
2018-08-20T22:25:14.629Z,12.33
2018-08-20T22:27:49.424Z,14.10
2018-08-20T22:30:19.137Z,11.63
2018-08-20T22:32:49.245Z,12.20
2018-08-20T22:35:24.325Z,12.60
2018-08-20T22:37:54.134Z,12.40
2018-08-20T22:40:23.463Z,13.70
2018-08-20T22:42:57.746Z,12.60
2018-08-20T22:45:26.870Z,12.93
2018-08-20T22:47:56.076Z,13.10
2018-08-20T22:50:25.533Z,13.17
2018-08-20T22:52:54.782Z,14.47
2018-08-20T22:55:23.927Z,13.80
2018-08-20T22:58:14.220Z,13.70
2018-08-20T23:00:43.379Z,14.23
2018-08-20T23:03:12.520Z,13.27
2018-08-20T23:05:41.668Z,13.20
2018-08-20T23:08:15.661Z,13.10
2018-08-20T23:10:44.788Z,13.90
2018-08-20T23:13:13.911Z,14.90
2018-08-20T23:15:43.005Z,13.50
2018-08-20T23:18:12.115Z,13.10
2018-08-20T23:20:41.240Z,13.33
2018-08-20T23:23:10.393Z,14.60
2018-08-20T23:25:39.666Z,13.87
2018-08-20T23:28:08.821Z,13.63
2018-08-20T23:30:38.902Z,14.33
2018-08-20T23:33:08.209Z,13.00
2018-08-20T23:35:37.291Z,13.07
2018-08-20T23:38:06.424Z,13.30
2018-08-20T23:40:35.560Z,13.70
2018-08-20T23:43:04.703Z,13.00
2018-08-20T23:45:33.872Z,14.30
2018-08-20T23:48:03.069Z,13.97
2018-08-20T23:50:32.176Z,12.27
2018-08-20T23:53:01.905Z,14.33
2018-08-20T23:55:31.056Z,15.50
2018-08-20T23:58:00.793Z,14.40
